Schedule Details


Flight Number: CTN418
Departure: Cilipi (LDDU) at 15:55
Arrival: Frankfurt/main (EDDF) at 18:00
Route: AMUGO UL611 UVODI UL862 SABAD DCT PIKIT DCT SUBEN UQ162 PSA

Weather Information
LDDU 151600Z 29007KT CAVOK 24/14 Q1022 NOSIG
EDDF 151550Z 23007KT CAVOK 27/10 Q1020 NOSIG
Schedule Frequency

Route Map